sensor_id;sensor_type;location;lat;lon;timestamp;pressure;altitude;pressure_sealevel;temperature;humidity
6899;BME280;3488;42.616;23.350;2023-05-02T00:01:21;63058.09;;;10.28;100.00
6899;BME280;3488;42.616;23.350;2023-05-02T00:03:49;63057.56;;;10.27;100.00
6899;BME280;3488;42.616;23.350;2023-05-02T00:06:16;63046.59;;;10.09;100.00
6899;BME280;3488;42.616;23.350;2023-05-02T00:08:43;63042.59;;;10.15;100.00
6899;BME280;3488;42.616;23.350;2023-05-02T00:11:10;63034.72;;;10.03;100.00
6899;BME280;3488;42.616;23.350;2023-05-02T00:13:38;63040.50;;;10.11;100.00
6899;BME280;3488;42.616;23.350;2023-05-02T00:16:06;63041.50;;;10.09;100.00
6899;BME280;3488;42.616;23.350;2023-05-02T00:18:34;63003.31;;;9.80;100.00
6899;BME280;3488;42.616;23.350;2023-05-02T00:21:02;63014.59;;;9.86;100.00
6899;BME280;3488;42.616;23.350;2023-05-02T00:23:29;63022.31;;;9.91;100.00
6899;BME280;3488;42.616;23.350;2023-05-02T00:25:57;63012.53;;;9.84;100.00
6899;BME280;3488;42.616;23.350;2023-05-02T00:28:24;63020.34;;;9.94;100.00
6899;BME280;3488;42.616;23.350;2023-05-02T00:30:51;63023.41;;;9.94;100.00
6899;BME280;3488;42.616;23.350;2023-05-02T00:33:19;63028.56;;;9.99;100.00
6899;BME280;3488;42.616;23.350;2023-05-02T00:35:47;63038.88;;;10.07;100.00
6899;BME280;3488;42.616;23.350;2023-05-02T00:38:15;63037.91;;;10.08;100.00
6899;BME280;3488;42.616;23.350;2023-05-02T00:40:43;63047.22;;;10.17;100.00
6899;BME280;3488;42.616;23.350;2023-05-02T00:43:11;63049.78;;;10.20;100.00
6899;BME280;3488;42.616;23.350;2023-05-02T00:45:38;63060.06;;;10.25;100.00
6899;BME280;3488;42.616;23.350;2023-05-02T00:48:06;63055.47;;;10.23;100.00
6899;BME280;3488;42.616;23.350;2023-05-02T00:50:36;63056.53;;;10.26;100.00
6899;BME280;3488;42.616;23.350;2023-05-02T00:53:06;63052.94;;;10.25;100.00
6899;BME280;3488;42.616;23.350;2023-05-02T00:55:34;63060.66;;;10.30;100.00
6899;BME280;3488;42.616;23.350;2023-05-02T00:58:04;63062.19;;;10.29;100.00
6899;BME280;3488;42.616;23.350;2023-05-02T01:00:40;63062.19;;;10.29;100.00
6899;BME280;3488;42.616;23.350;2023-05-02T01:03:22;63054.94;;;10.22;100.00
6899;BME280;3488;42.616;23.350;2023-05-02T01:06:00;63067.81;;;10.32;100.00
6899;BME280;3488;42.616;23.350;2023-05-02T01:08:35;63061.75;;;10.34;100.00
6899;BME280;3488;42.616;23.350;2023-05-02T01:11:12;63070.41;;;10.35;100.00
6899;BME280;3488;42.616;23.350;2023-05-02T01:13:42;63066.31;;;10.33;100.00
6899;BME280;3488;42.616;23.350;2023-05-02T01:16:11;63060.25;;;10.35;100.00
6899;BME280;3488;42.616;23.350;2023-05-02T01:18:41;63061.22;;;10.33;100.00
6899;BME280;3488;42.616;23.350;2023-05-02T01:21:10;63073.59;;;10.43;100.00
6899;BME280;3488;42.616;23.350;2023-05-02T01:23:45;63079.28;;;10.48;100.00
6899;BME280;3488;42.616;23.350;2023-05-02T01:26:16;63070.53;;;10.42;100.00
6899;BME280;3488;42.616;23.350;2023-05-02T01:28:58;63077.69;;;10.44;100.00
6899;BME280;3488;42.616;23.350;2023-05-02T01:31:28;63072.00;;;10.39;100.00
6899;BME280;3488;42.616;23.350;2023-05-02T01:33:58;63076.66;;;10.43;100.00
6899;BME280;3488;42.616;23.350;2023-05-02T01:36:28;63080.28;;;10.47;100.00
6899;BME280;3488;42.616;23.350;2023-05-02T01:38:57;63074.16;;;10.46;100.00
6899;BME280;3488;42.616;23.350;2023-05-02T01:41:26;63071.50;;;10.38;100.00
6899;BME280;3488;42.616;23.350;2023-05-02T01:43:57;63073.06;;;10.42;100.00
6899;BME280;3488;42.616;23.350;2023-05-02T01:46:26;63065.84;;;10.35;100.00
6899;BME280;3488;42.616;23.350;2023-05-02T01:48:56;63074.63;;;10.44;100.00
6899;BME280;3488;42.616;23.350;2023-05-02T01:51:27;63072.59;;;10.44;100.00
6899;BME280;3488;42.616;23.350;2023-05-02T01:53:58;63069.97;;;10.39;100.00
6899;BME280;3488;42.616;23.350;2023-05-02T01:56:28;63074.06;;;10.41;100.00
6899;BME280;3488;42.616;23.350;2023-05-02T01:58:59;63080.38;;;10.52;100.00
6899;BME280;3488;42.616;23.350;2023-05-02T02:01:28;63073.13;;;10.45;100.00
6899;BME280;3488;42.616;23.350;2023-05-02T02:03:56;63079.78;;;10.46;100.00
6899;BME280;3488;42.616;23.350;2023-05-02T02:06:25;63083.47;;;10.55;100.00
6899;BME280;3488;42.616;23.350;2023-05-02T02:08:53;63085.56;;;10.60;100.00
6899;BME280;3488;42.616;23.350;2023-05-02T02:11:25;63092.13;;;10.56;100.00
6899;BME280;3488;42.616;23.350;2023-05-02T02:14:00;63093.28;;;10.62;100.00
6899;BME280;3488;42.616;23.350;2023-05-02T02:16:33;63089.69;;;10.61;100.00
6899;BME280;3488;42.616;23.350;2023-05-02T02:19:04;63090.66;;;10.60;100.00
6899;BME280;3488;42.616;23.350;2023-05-02T02:21:34;63092.25;;;10.61;100.00
6899;BME280;3488;42.616;23.350;2023-05-02T02:24:04;63098.91;;;10.65;100.00
6899;BME280;3488;42.616;23.350;2023-05-02T02:26:32;63093.75;;;10.60;100.00
6899;BME280;3488;42.616;23.350;2023-05-02T02:29:02;63090.16;;;10.59;100.00
6899;BME280;3488;42.616;23.350;2023-05-02T02:31:30;63088.09;;;10.57;100.00
6899;BME280;3488;42.616;23.350;2023-05-02T02:33:58;63093.28;;;10.62;100.00
6899;BME280;3488;42.616;23.350;2023-05-02T02:36:30;63094.28;;;10.63;100.00
6899;BME280;3488;42.616;23.350;2023-05-02T02:39:07;63081.88;;;10.51;100.00
6899;BME280;3488;42.616;23.350;2023-05-02T02:41:41;63095.28;;;10.62;100.00
6899;BME280;3488;42.616;23.350;2023-05-02T02:44:21;63104.63;;;10.71;100.00
6899;BME280;3488;42.616;23.350;2023-05-02T02:46:56;63097.88;;;10.64;100.00
6899;BME280;3488;42.616;23.350;2023-05-02T02:49:32;63100.00;;;10.69;100.00
6899;BME280;3488;42.616;23.350;2023-05-02T02:52:04;63096.88;;;10.66;100.00
6899;BME280;3488;42.616;23.350;2023-05-02T02:54:35;63096.84;;;10.63;100.00
6899;BME280;3488;42.616;23.350;2023-05-02T02:57:14;63094.28;;;10.63;100.00
6899;BME280;3488;42.616;23.350;2023-05-02T02:59:51;63093.19;;;10.57;100.00
6899;BME280;3488;42.616;23.350;2023-05-02T03:02:26;63085.00;;;10.54;100.00
6899;BME280;3488;42.616;23.350;2023-05-02T03:04:56;63073.69;;;10.48;100.00
6899;BME280;3488;42.616;23.350;2023-05-02T03:07:26;63079.28;;;10.48;100.00
6899;BME280;3488;42.616;23.350;2023-05-02T03:09:54;63071.56;;;10.43;100.00
6899;BME280;3488;42.616;23.350;2023-05-02T03:12:21;63075.13;;;10.42;100.00
6899;BME280;3488;42.616;23.350;2023-05-02T03:14:50;63073.03;;;10.40;100.00
6899;BME280;3488;42.616;23.350;2023-05-02T03:17:18;63067.88;;;10.35;100.00
6899;BME280;3488;42.616;23.350;2023-05-02T03:19:44;63067.91;;;10.37;100.00
6899;BME280;3488;42.616;23.350;2023-05-02T03:22:11;63060.66;;;10.30;100.00
6899;BME280;3488;42.616;23.350;2023-05-02T03:24:39;63061.75;;;10.34;100.00
6899;BME280;3488;42.616;23.350;2023-05-02T03:27:06;63067.88;;;10.35;100.00
6899;BME280;3488;42.616;23.350;2023-05-02T03:29:33;63070.44;;;10.37;100.00
6899;BME280;3488;42.616;23.350;2023-05-02T03:32:03;63070.44;;;10.37;100.00
6899;BME280;3488;42.616;23.350;2023-05-02T03:34:30;63063.22;;;10.30;100.00
6899;BME280;3488;42.616;23.350;2023-05-02T03:36:57;63064.81;;;10.34;100.00
6899;BME280;3488;42.616;23.350;2023-05-02T03:39:24;63073.06;;;10.42;100.00
6899;BME280;3488;42.616;23.350;2023-05-02T03:41:52;63069.50;;;10.41;100.00
6899;BME280;3488;42.616;23.350;2023-05-02T03:44:19;63080.28;;;10.47;100.00
6899;BME280;3488;42.616;23.350;2023-05-02T03:46:46;63082.94;;;10.55;100.00
6899;BME280;3488;42.616;23.350;2023-05-02T03:49:15;63093.22;;;10.60;100.00
6899;BME280;3488;42.616;23.350;2023-05-02T03:51:44;63093.78;;;10.63;100.00
6899;BME280;3488;42.616;23.350;2023-05-02T03:54:11;63095.38;;;10.67;100.00
6899;BME280;3488;42.616;23.350;2023-05-02T03:56:38;63105.69;;;10.74;100.00
6899;BME280;3488;42.616;23.350;2023-05-02T03:59:05;63111.38;;;10.80;100.00
6899;BME280;3488;42.616;23.350;2023-05-02T04:01:33;63110.41;;;10.84;100.00
6899;BME280;3488;42.616;23.350;2023-05-02T04:04:00;63125.88;;;10.94;100.00
6899;BME280;3488;42.616;23.350;2023-05-02T04:06:29;63126.88;;;10.92;100.00
6899;BME280;3488;42.616;23.350;2023-05-02T04:08:56;63140.84;;;11.06;100.00
6899;BME280;3488;42.616;23.350;2023-05-02T04:11:25;63138.78;;;11.04;100.00
6899;BME280;3488;42.616;23.350;2023-05-02T04:13:52;63138.78;;;11.04;100.00
6899;BME280;3488;42.616;23.350;2023-05-02T04:16:19;63135.72;;;11.03;100.00
6899;BME280;3488;42.616;23.350;2023-05-02T04:18:46;63136.22;;;11.04;100.00
6899;BME280;3488;42.616;23.350;2023-05-02T04:21:13;63137.25;;;11.05;100.00
6899;BME280;3488;42.616;23.350;2023-05-02T04:23:42;63130.53;;;10.98;100.00
6899;BME280;3488;42.616;23.350;2023-05-02T04:26:09;63137.25;;;11.05;100.00
6899;BME280;3488;42.616;23.350;2023-05-02T04:28:36;63140.38;;;11.08;100.00
6899;BME280;3488;42.616;23.350;2023-05-02T04:31:04;63145.97;;;11.08;100.00
6899;BME280;3488;42.616;23.350;2023-05-02T04:33:32;63133.09;;;10.98;100.00
6899;BME280;3488;42.616;23.350;2023-05-02T04:35:59;63127.44;;;10.95;100.00
6899;BME280;3488;42.616;23.350;2023-05-02T04:38:26;63138.31;;;11.06;100.00
6899;BME280;3488;42.616;23.350;2023-05-02T04:40:55;63129.97;;;10.95;100.00
6899;BME280;3488;42.616;23.350;2023-05-02T04:43:22;63136.75;;;11.04;100.00
6899;BME280;3488;42.616;23.350;2023-05-02T04:45:49;63151.25;;;11.18;100.00
6899;BME280;3488;42.616;23.350;2023-05-02T04:48:16;63142.97;;;11.10;100.00
6899;BME280;3488;42.616;23.350;2023-05-02T04:50:44;63149.19;;;11.16;100.00
6899;BME280;3488;42.616;23.350;2023-05-02T04:53:11;63162.13;;;11.29;100.00
6899;BME280;3488;42.616;23.350;2023-05-02T04:55:38;63164.66;;;11.29;100.00
6899;BME280;3488;42.616;23.350;2023-05-02T04:58:08;63177.13;;;11.43;100.00
6899;BME280;3488;42.616;23.350;2023-05-02T05:00:36;63183.91;;;11.52;100.00
6899;BME280;3488;42.616;23.350;2023-05-02T05:03:04;63211.78;;;11.72;100.00
6899;BME280;3488;42.616;23.350;2023-05-02T05:05:33;63209.31;;;11.77;100.00
6899;BME280;3488;42.616;23.350;2023-05-02T05:08:01;63231.53;;;11.96;99.67
6899;BME280;3488;42.616;23.350;2023-05-02T05:10:28;63241.88;;;12.04;98.35
6899;BME280;3488;42.616;23.350;2023-05-02T05:12:55;63220.19;;;11.88;99.57
6899;BME280;3488;42.616;23.350;2023-05-02T05:15:24;63228.91;;;11.91;98.64
6899;BME280;3488;42.616;23.350;2023-05-02T05:17:52;63233.09;;;11.98;98.91
6899;BME280;3488;42.616;23.350;2023-05-02T05:20:19;63247.06;;;12.09;98.25
6899;BME280;3488;42.616;23.350;2023-05-02T05:22:47;63245.94;;;12.03;98.87
6899;BME280;3488;42.616;23.350;2023-05-02T05:25:17;63260.03;;;12.24;98.33
6899;BME280;3488;42.616;23.350;2023-05-02T05:27:44;63277.09;;;12.35;98.33
6899;BME280;3488;42.616;23.350;2023-05-02T05:30:11;63280.25;;;12.43;97.22
6899;BME280;3488;42.616;23.350;2023-05-02T05:32:40;63288.00;;;12.48;95.30
6899;BME280;3488;42.616;23.350;2023-05-02T05:35:08;63319.19;;;12.84;93.74
6899;BME280;3488;42.616;23.350;2023-05-02T05:37:36;63326.94;;;12.89;93.21
6899;BME280;3488;42.616;23.350;2023-05-02T05:40:05;63359.53;;;13.15;91.97
6899;BME280;3488;42.616;23.350;2023-05-02T05:42:32;63368.94;;;13.27;90.01
6899;BME280;3488;42.616;23.350;2023-05-02T05:44:59;63359.59;;;13.18;87.92
6899;BME280;3488;42.616;23.350;2023-05-02T05:47:27;63372.00;;;13.27;84.70
6899;BME280;3488;42.616;23.350;2023-05-02T05:49:55;63375.16;;;13.33;84.49
6899;BME280;3488;42.616;23.350;2023-05-02T05:52:23;63352.41;;;13.16;86.07
6899;BME280;3488;42.616;23.350;2023-05-02T05:54:53;63360.59;;;13.16;84.94
6899;BME280;3488;42.616;23.350;2023-05-02T05:57:21;63366.38;;;13.27;85.28
6899;BME280;3488;42.616;23.350;2023-05-02T05:59:48;63370.44;;;13.26;85.24
6899;BME280;3488;42.616;23.350;2023-05-02T06:02:16;63363.25;;;13.24;83.07
6899;BME280;3488;42.616;23.350;2023-05-02T06:04:44;63380.84;;;13.38;82.77
6899;BME280;3488;42.616;23.350;2023-05-02T06:07:15;63382.41;;;13.40;82.12
6899;BME280;3488;42.616;23.350;2023-05-02T06:09:42;63396.97;;;13.56;81.29
6899;BME280;3488;42.616;23.350;2023-05-02T06:12:09;63408.91;;;13.68;78.64
6899;BME280;3488;42.616;23.350;2023-05-02T06:14:37;63400.03;;;13.54;75.88
6899;BME280;3488;42.616;23.350;2023-05-02T06:17:04;63408.84;;;13.63;76.70
6899;BME280;3488;42.616;23.350;2023-05-02T06:19:33;63431.66;;;13.85;76.11
6899;BME280;3488;42.616;23.350;2023-05-02T06:22:00;63437.97;;;13.96;75.76
6899;BME280;3488;42.616;23.350;2023-05-02T06:24:30;63451.50;;;14.12;75.21
6899;BME280;3488;42.616;23.350;2023-05-02T06:26:57;63473.38;;;14.35;72.38
6899;BME280;3488;42.616;23.350;2023-05-02T06:29:24;63481.56;;;14.36;70.03
6899;BME280;3488;42.616;23.350;2023-05-02T06:31:54;63465.53;;;14.25;69.23
6899;BME280;3488;42.616;23.350;2023-05-02T06:34:21;63470.16;;;14.27;68.65
6899;BME280;3488;42.616;23.350;2023-05-02T06:36:53;63466.50;;;14.21;68.03
6899;BME280;3488;42.616;23.350;2023-05-02T06:39:21;63484.19;;;14.41;68.27
6899;BME280;3488;42.616;23.350;2023-05-02T06:41:49;63485.78;;;14.45;66.51
6899;BME280;3488;42.616;23.350;2023-05-02T06:44:16;63491.47;;;14.48;65.24
6899;BME280;3488;42.616;23.350;2023-05-02T06:46:43;63469.59;;;14.24;65.53
6899;BME280;3488;42.616;23.350;2023-05-02T06:49:11;63478.47;;;14.35;65.62
6899;BME280;3488;42.616;23.350;2023-05-02T06:51:38;63496.63;;;14.50;66.50
6899;BME280;3488;42.616;23.350;2023-05-02T06:54:05;63514.34;;;14.72;64.64
6899;BME280;3488;42.616;23.350;2023-05-02T06:56:33;63517.94;;;14.73;63.92
6899;BME280;3488;42.616;23.350;2023-05-02T06:59:01;63518.50;;;14.76;65.06
6899;BME280;3488;42.616;23.350;2023-05-02T07:01:29;63539.22;;;14.91;64.99
6899;BME280;3488;42.616;23.350;2023-05-02T07:03:56;63530.97;;;14.88;62.54
6899;BME280;3488;42.616;23.350;2023-05-02T07:06:23;63532.97;;;14.85;63.67
6899;BME280;3488;42.616;23.350;2023-05-02T07:08:51;63545.47;;;15.00;63.93
6899;BME280;3488;42.616;23.350;2023-05-02T07:11:18;63559.53;;;15.16;62.37
6899;BME280;3488;42.616;23.350;2023-05-02T07:13:47;63573.03;;;15.27;61.97
6899;BME280;3488;42.616;23.350;2023-05-02T07:16:17;63582.81;;;15.31;60.42
6899;BME280;3488;42.616;23.350;2023-05-02T07:18:45;63585.44;;;15.36;60.45
6899;BME280;3488;42.616;23.350;2023-05-02T07:21:12;63588.63;;;15.42;60.97
6899;BME280;3488;42.616;23.350;2023-05-02T07:23:39;63596.38;;;15.47;58.49
6899;BME280;3488;42.616;23.350;2023-05-02T07:26:06;63606.84;;;15.62;59.35
6899;BME280;3488;42.616;23.350;2023-05-02T07:28:33;63617.72;;;15.70;59.10
6899;BME280;3488;42.616;23.350;2023-05-02T07:31:00;63641.13;;;15.92;58.53
6899;BME280;3488;42.616;23.350;2023-05-02T07:33:29;63650.47;;;16.01;57.77
6899;BME280;3488;42.616;23.350;2023-05-02T07:35:56;63654.13;;;16.05;57.83
6899;BME280;3488;42.616;23.350;2023-05-02T07:38:23;63674.44;;;16.27;57.58
6899;BME280;3488;42.616;23.350;2023-05-02T07:40:50;63674.41;;;16.25;57.08
6899;BME280;3488;42.616;23.350;2023-05-02T07:43:17;63667.13;;;16.17;56.46
6899;BME280;3488;42.616;23.350;2023-05-02T07:45:44;63681.69;;;16.32;57.25
6899;BME280;3488;42.616;23.350;2023-05-02T07:48:11;63698.34;;;16.48;56.69
6899;BME280;3488;42.616;23.350;2023-05-02T07:50:40;63714.97;;;16.64;57.45
6899;BME280;3488;42.616;23.350;2023-05-02T07:53:07;63737.31;;;16.83;55.57
6899;BME280;3488;42.616;23.350;2023-05-02T07:55:35;63732.09;;;16.75;56.12
6899;BME280;3488;42.616;23.350;2023-05-02T07:58:02;63741.53;;;16.89;56.16
6899;BME280;3488;42.616;23.350;2023-05-02T08:00:29;63739.91;;;16.83;54.81
6899;BME280;3488;42.616;23.350;2023-05-02T08:02:56;63712.34;;;16.59;54.97
6899;BME280;3488;42.616;23.350;2023-05-02T08:05:23;63725.91;;;16.74;55.22
6899;BME280;3488;42.616;23.350;2023-05-02T08:07:51;63745.66;;;16.91;55.50
6899;BME280;3488;42.616;23.350;2023-05-02T08:12:58;63753.50;;;17.01;54.38
6899;BME280;3488;42.616;23.350;2023-05-02T08:15:25;63762.84;;;17.07;54.99
6899;BME280;3488;42.616;23.350;2023-05-02T08:17:53;63779.53;;;17.28;55.58
6899;BME280;3488;42.616;23.350;2023-05-02T08:20:20;63808.16;;;17.51;53.10
6899;BME280;3488;42.616;23.350;2023-05-02T08:22:47;63813.38;;;17.59;52.89
6899;BME280;3488;42.616;23.350;2023-05-02T08:25:17;63805.56;;;17.51;51.63
6899;BME280;3488;42.616;23.350;2023-05-02T08:27:44;63783.69;;;17.30;53.11
6899;BME280;3488;42.616;23.350;2023-05-02T08:30:12;63779.50;;;17.23;51.73
6899;BME280;3488;42.616;23.350;2023-05-02T08:32:39;63786.78;;;17.30;53.17
6899;BME280;3488;42.616;23.350;2023-05-02T08:35:07;63802.44;;;17.48;52.68
6899;BME280;3488;42.616;23.350;2023-05-02T08:37:35;63838.34;;;17.80;50.93
6899;BME280;3488;42.616;23.350;2023-05-02T08:40:02;63849.28;;;17.93;51.17
6899;BME280;3488;42.616;23.350;2023-05-02T08:42:32;63872.19;;;18.13;51.12
6899;BME280;3488;42.616;23.350;2023-05-02T08:45:00;63896.13;;;18.33;49.87
6899;BME280;3488;42.616;23.350;2023-05-02T08:47:29;63896.16;;;18.36;49.27
6899;BME280;3488;42.616;23.350;2023-05-02T08:50:02;63896.16;;;18.36;48.49
6899;BME280;3488;42.616;23.350;2023-05-02T08:52:31;63883.69;;;18.26;49.42
6899;BME280;3488;42.616;23.350;2023-05-02T08:54:59;63910.72;;;18.48;49.98
6899;BME280;3488;42.616;23.350;2023-05-02T08:57:28;63906.63;;;18.49;49.11
6899;BME280;3488;42.616;23.350;2023-05-02T08:59:57;63914.94;;;18.54;49.67
6899;BME280;3488;42.616;23.350;2023-05-02T09:02:38;63927.41;;;18.64;48.05
6899;BME280;3488;42.616;23.350;2023-05-02T09:05:10;63926.38;;;18.63;48.29
6899;BME280;3488;42.616;23.350;2023-05-02T09:07:46;63921.69;;;18.61;47.70
6899;BME280;3488;42.616;23.350;2023-05-02T09:10:14;63936.78;;;18.73;47.76
6899;BME280;3488;42.616;23.350;2023-05-02T09:12:41;63937.34;;;18.76;48.42
6899;BME280;3488;42.616;23.350;2023-05-02T09:15:11;63940.00;;;18.83;47.04
6899;BME280;3488;42.616;23.350;2023-05-02T09:17:42;63951.47;;;18.94;46.48
6899;BME280;3488;42.616;23.350;2023-05-02T09:20:10;63976.41;;;19.11;45.94
6899;BME280;3488;42.616;23.350;2023-05-02T09:22:38;63980.09;;;19.17;47.09
6899;BME280;3488;42.616;23.350;2023-05-02T09:25:05;63985.81;;;19.22;45.84
6899;BME280;3488;42.616;23.350;2023-05-02T09:27:49;63961.25;;;18.94;46.72
6899;BME280;3488;42.616;23.350;2023-05-02T09:30:22;63964.91;;;18.97;46.63
6899;BME280;3488;42.616;23.350;2023-05-02T09:32:51;63972.78;;;19.12;46.47
6899;BME280;3488;42.616;23.350;2023-05-02T09:35:20;63996.75;;;19.30;46.24
6899;BME280;3488;42.616;23.350;2023-05-02T09:37:52;63999.91;;;19.36;46.67
6899;BME280;3488;42.616;23.350;2023-05-02T09:40:20;63996.22;;;19.30;44.35
6899;BME280;3488;42.616;23.350;2023-05-02T09:42:47;63984.81;;;19.24;44.28
6899;BME280;3488;42.616;23.350;2023-05-02T09:45:23;63999.38;;;19.35;45.85
6899;BME280;3488;42.616;23.350;2023-05-02T09:47:52;64005.13;;;19.41;44.65
6899;BME280;3488;42.616;23.350;2023-05-02T09:50:32;64022.34;;;19.60;44.13
6899;BME280;3488;42.616;23.350;2023-05-02T09:53:02;64035.84;;;19.66;42.89
6899;BME280;3488;42.616;23.350;2023-05-02T09:55:29;64025.97;;;19.61;43.76
6899;BME280;3488;42.616;23.350;2023-05-02T09:57:57;64045.28;;;19.80;45.19
6899;BME280;3488;42.616;23.350;2023-05-02T10:00:39;64064.06;;;20.00;44.50
6899;BME280;3488;42.616;23.350;2023-05-02T10:03:07;64057.78;;;19.92;42.64
6899;BME280;3488;42.616;23.350;2023-05-02T10:05:36;64057.75;;;19.87;41.59
6899;BME280;3488;42.616;23.350;2023-05-02T10:08:05;64065.63;;;19.99;42.05
6899;BME280;3488;42.616;23.350;2023-05-02T10:10:35;64055.16;;;19.87;42.34
6899;BME280;3488;42.616;23.350;2023-05-02T10:13:03;64056.75;;;19.91;41.82
6899;BME280;3488;42.616;23.350;2023-05-02T10:15:32;64070.88;;;20.09;43.34
6899;BME280;3488;42.616;23.350;2023-05-02T10:18:07;64090.19;;;20.25;42.46
6899;BME280;3488;42.616;23.350;2023-05-02T10:20:42;64105.25;;;20.35;40.76
6899;BME280;3488;42.616;23.350;2023-05-02T10:23:11;64113.69;;;20.50;41.15
6899;BME280;3488;42.616;23.350;2023-05-02T10:25:38;64121.44;;;20.50;40.59
6899;BME280;3488;42.616;23.350;2023-05-02T10:28:06;64118.81;;;20.45;39.50
6899;BME280;3488;42.616;23.350;2023-05-02T10:30:37;64120.97;;;20.55;40.02
6899;BME280;3488;42.616;23.350;2023-05-02T10:33:06;64120.94;;;20.52;40.52
6899;BME280;3488;42.616;23.350;2023-05-02T10:35:36;64131.91;;;20.63;41.15
6899;BME280;3488;42.616;23.350;2023-05-02T10:38:06;64137.13;;;20.68;39.44
6899;BME280;3488;42.616;23.350;2023-05-02T10:40:33;64137.66;;;20.71;40.88
6899;BME280;3488;42.616;23.350;2023-05-02T10:43:01;64136.59;;;20.65;39.52
6899;BME280;3488;42.616;23.350;2023-05-02T10:45:33;64107.91;;;20.40;39.60
6899;BME280;3488;42.616;23.350;2023-05-02T10:48:19;64108.97;;;20.43;39.78
6899;BME280;3488;42.616;23.350;2023-05-02T10:50:48;64103.22;;;20.35;39.65
6899;BME280;3488;42.616;23.350;2023-05-02T10:53:27;64120.97;;;20.55;39.75
6899;BME280;3488;42.616;23.350;2023-05-02T10:56:18;64111.56;;;20.46;39.55
6899;BME280;3488;42.616;23.350;2023-05-02T10:58:47;64146.47;;;20.72;39.86
6899;BME280;3488;42.616;23.350;2023-05-02T11:01:42;64175.78;;;21.08;38.91
6899;BME280;3488;42.616;23.350;2023-05-02T11:04:10;64185.69;;;21.15;38.34
6899;BME280;3488;42.616;23.350;2023-05-02T11:09:37;64186.69;;;21.11;38.89
6899;BME280;3488;42.616;23.350;2023-05-02T11:12:04;64140.78;;;20.72;38.78
6899;BME280;3488;42.616;23.350;2023-05-02T11:14:46;64164.28;;;20.94;40.48
6899;BME280;3488;42.616;23.350;2023-05-02T11:17:15;64199.25;;;21.25;38.77
6899;BME280;3488;42.616;23.350;2023-05-02T11:22:58;64213.34;;;21.39;38.80
6899;BME280;3488;42.616;23.350;2023-05-02T11:25:32;64208.69;;;21.39;38.91
6899;BME280;3488;42.616;23.350;2023-05-02T11:27:59;64205.53;;;21.34;40.08
6899;BME280;3488;42.616;23.350;2023-05-02T11:30:43;64235.81;;;21.63;37.75
6899;BME280;3488;42.616;23.350;2023-05-02T11:33:14;64248.38;;;21.75;37.09
6899;BME280;3488;42.616;23.350;2023-05-02T11:35:43;64250.44;;;21.74;37.70
6899;BME280;3488;42.616;23.350;2023-05-02T11:38:14;64247.31;;;21.74;38.59
6899;BME280;3488;42.616;23.350;2023-05-02T11:40:49;64247.31;;;21.74;37.96
6899;BME280;3488;42.616;23.350;2023-05-02T11:43:18;64275.56;;;22.01;37.52
6899;BME280;3488;42.616;23.350;2023-05-02T11:45:47;64298.56;;;22.26;36.84
6899;BME280;3488;42.616;23.350;2023-05-02T11:48:16;64282.88;;;22.11;37.06
6899;BME280;3488;42.616;23.350;2023-05-02T11:50:44;64286.50;;;22.09;37.38
6899;BME280;3488;42.616;23.350;2023-05-02T11:53:14;64317.88;;;22.42;38.90
6899;BME280;3488;42.616;23.350;2023-05-02T11:55:45;64290.72;;;22.16;37.70
6899;BME280;3488;42.616;23.350;2023-05-02T11:58:14;64286.50;;;22.09;37.29
6899;BME280;3488;42.616;23.350;2023-05-02T12:00:42;64285.47;;;22.11;37.63
6899;BME280;3488;42.616;23.350;2023-05-02T12:03:22;64333.53;;;22.52;36.76
6899;BME280;3488;42.616;23.350;2023-05-02T12:05:49;64347.19;;;22.72;36.47
6899;BME280;3488;42.616;23.350;2023-05-02T12:08:23;64307.94;;;22.32;37.65
6899;BME280;3488;42.616;23.350;2023-05-02T12:10:53;64295.44;;;22.25;38.23
6899;BME280;3488;42.616;23.350;2023-05-02T12:13:23;64289.66;;;22.15;37.29
6899;BME280;3488;42.616;23.350;2023-05-02T12:15:52;64314.25;;;22.41;35.99
6899;BME280;3488;42.616;23.350;2023-05-02T12:18:22;64337.25;;;22.60;36.43
6899;BME280;3488;42.616;23.350;2023-05-02T12:20:52;64318.41;;;22.40;36.51
6899;BME280;3488;42.616;23.350;2023-05-02T12:23:23;64320.00;;;22.46;36.61
6899;BME280;3488;42.616;23.350;2023-05-02T12:25:52;64349.25;;;22.72;37.17
6899;BME280;3488;42.616;23.350;2023-05-02T12:28:19;64378.56;;;23.00;36.65
6899;BME280;3488;42.616;23.350;2023-05-02T12:30:49;64382.22;;;23.06;36.82
6899;BME280;3488;42.616;23.350;2023-05-02T12:33:16;64414.09;;;23.29;35.51
6899;BME280;3488;42.616;23.350;2023-05-02T12:35:44;64388.47;;;23.10;35.99
6899;BME280;3488;42.616;23.350;2023-05-02T12:38:13;64415.66;;;23.33;35.37
6899;BME280;3488;42.616;23.350;2023-05-02T12:40:49;64380.09;;;22.97;35.37
6899;BME280;3488;42.616;23.350;2023-05-02T12:43:18;64389.50;;;23.08;36.35
6899;BME280;3488;42.616;23.350;2023-05-02T12:45:46;64402.09;;;23.25;35.21
6899;BME280;3488;42.616;23.350;2023-05-02T12:48:19;64440.78;;;23.55;35.10
6899;BME280;3488;42.616;23.350;2023-05-02T12:50:46;64406.25;;;23.27;34.93
6899;BME280;3488;42.616;23.350;2023-05-02T12:53:13;64438.16;;;23.55;35.05
6899;BME280;3488;42.616;23.350;2023-05-02T12:55:40;64416.22;;;23.39;34.09
6899;BME280;3488;42.616;23.350;2023-05-02T12:58:10;64428.78;;;23.51;34.08
6899;BME280;3488;42.616;23.350;2023-05-02T13:00:40;64386.41;;;23.10;34.44
6899;BME280;3488;42.616;23.350;2023-05-02T13:03:08;64358.19;;;22.83;35.24
6899;BME280;3488;42.616;23.350;2023-05-02T13:05:36;64396.31;;;23.17;35.63
6899;BME280;3488;42.616;23.350;2023-05-02T13:08:03;64421.44;;;23.41;34.28
6899;BME280;3488;42.616;23.350;2023-05-02T13:10:30;64443.94;;;23.63;34.40
6899;BME280;3488;42.616;23.350;2023-05-02T13:12:57;64419.84;;;23.35;33.12
6899;BME280;3488;42.616;23.350;2023-05-02T13:15:46;64408.38;;;23.29;32.92
6899;BME280;3488;42.616;23.350;2023-05-02T13:18:18;64421.44;;;23.36;34.51
6899;BME280;3488;42.616;23.350;2023-05-02T13:20:45;64355.56;;;22.80;34.60
6899;BME280;3488;42.616;23.350;2023-05-02T13:23:17;64382.22;;;23.04;34.36
6899;BME280;3488;42.616;23.350;2023-05-02T13:25:44;64364.44;;;22.89;34.90
6899;BME280;3488;42.616;23.350;2023-05-02T13:28:11;64359.22;;;22.84;34.16